sensor_id;sensor_type;location;lat;lon;timestamp;P1;durP1;ratioP1;P2;durP2;ratioP2
58374;SDS011;44178;53.090;6.760;2022-08-04T12:49:41;3.53;;;1.95;;
58374;SDS011;44178;53.090;6.760;2022-08-04T12:52:09;5.68;;;2.22;;
58374;SDS011;44178;53.090;6.760;2022-08-04T12:54:38;9.93;;;2.35;;
58374;SDS011;44178;53.090;6.760;2022-08-04T12:57:07;10.35;;;2.50;;
58374;SDS011;44178;53.090;6.760;2022-08-04T12:59:37;6.32;;;2.55;;
58374;SDS011;44178;53.090;6.760;2022-08-04T13:02:16;13.63;;;2.92;;
58374;SDS011;44178;53.090;6.760;2022-08-04T13:05:03;11.57;;;2.42;;
58374;SDS011;44178;53.090;6.760;2022-08-04T13:07:36;7.97;;;2.60;;
58374;SDS011;44178;53.090;6.760;2022-08-04T13:10:12;9.68;;;2.60;;
58374;SDS011;44178;53.090;6.760;2022-08-04T13:12:41;8.20;;;2.35;;
58374;SDS011;44178;53.090;6.760;2022-08-04T13:15:14;4.90;;;2.40;;
58374;SDS011;44178;53.090;6.760;2022-08-04T13:20:23;4.20;;;1.92;;
58374;SDS011;44178;53.090;6.760;2022-08-04T13:22:51;7.65;;;2.63;;
58374;SDS011;44178;53.090;6.760;2022-08-04T13:25:25;5.05;;;2.42;;
58374;SDS011;44178;53.090;6.760;2022-08-04T13:27:53;8.23;;;2.20;;
58374;SDS011;44178;53.090;6.760;2022-08-04T13:30:20;5.35;;;2.00;;
58374;SDS011;44178;53.090;6.760;2022-08-04T13:32:46;1.98;;;1.70;;
58374;SDS011;44178;53.090;6.760;2022-08-04T13:35:16;3.05;;;1.83;;
58374;SDS011;44178;53.090;6.760;2022-08-04T13:37:42;3.47;;;1.90;;
58374;SDS011;44178;53.090;6.760;2022-08-04T13:40:09;3.70;;;2.10;;
58374;SDS011;44178;53.090;6.760;2022-08-04T13:42:36;2.20;;;1.80;;
58374;SDS011;44178;53.090;6.760;2022-08-04T13:45:05;3.70;;;2.10;;
58374;SDS011;44178;53.090;6.760;2022-08-04T13:47:33;2.53;;;1.42;;
58374;SDS011;44178;53.090;6.760;2022-08-04T13:50:16;1.67;;;1.27;;
58374;SDS011;44178;53.090;6.760;2022-08-04T13:52:50;5.00;;;1.35;;
58374;SDS011;44178;53.090;6.760;2022-08-04T13:55:18;2.15;;;1.27;;
58374;SDS011;44178;53.090;6.760;2022-08-04T13:58:38;4.00;;;1.45;;
58374;SDS011;44178;53.090;6.760;2022-08-04T14:00:45;4.93;;;1.60;;
58374;SDS011;44178;53.090;6.760;2022-08-04T14:03:30;2.97;;;1.50;;
58374;SDS011;44178;53.090;6.760;2022-08-04T14:06:08;4.28;;;1.60;;
58374;SDS011;44178;53.090;6.760;2022-08-04T14:08:48;5.32;;;1.45;;
58374;SDS011;44178;53.090;6.760;2022-08-04T14:11:15;2.30;;;1.50;;
58374;SDS011;44178;53.090;6.760;2022-08-04T14:16:16;3.08;;;1.50;;
58374;SDS011;44178;53.090;6.760;2022-08-04T14:18:43;2.97;;;1.50;;
58374;SDS011;44178;53.090;6.760;2022-08-04T14:21:10;3.30;;;1.70;;
58374;SDS011;44178;53.090;6.760;2022-08-04T14:23:48;2.03;;;1.35;;
58374;SDS011;44178;53.090;6.760;2022-08-04T14:26:25;7.32;;;1.50;;
58374;SDS011;44178;53.090;6.760;2022-08-04T14:28:53;2.83;;;1.50;;
58374;SDS011;44178;53.090;6.760;2022-08-04T14:31:30;5.57;;;1.20;;
58374;SDS011;44178;53.090;6.760;2022-08-04T14:33:55;2.70;;;1.10;;
58374;SDS011;44178;53.090;6.760;2022-08-04T14:36:21;4.03;;;1.50;;
58374;SDS011;44178;53.090;6.760;2022-08-04T14:38:51;1.92;;;1.10;;
58374;SDS011;44178;53.090;6.760;2022-08-04T14:41:25;2.30;;;1.20;;
58374;SDS011;44178;53.090;6.760;2022-08-04T14:46:20;3.25;;;1.33;;
58374;SDS011;44178;53.090;6.760;2022-08-04T14:51:43;4.30;;;1.55;;
58374;SDS011;44178;53.090;6.760;2022-08-04T14:54:11;4.72;;;1.65;;
58374;SDS011;44178;53.090;6.760;2022-08-04T14:56:39;1.52;;;1.10;;
58374;SDS011;44178;53.090;6.760;2022-08-04T14:59:08;2.15;;;1.20;;
58374;SDS011;44178;53.090;6.760;2022-08-04T15:01:35;3.92;;;1.42;;
58374;SDS011;44178;53.090;6.760;2022-08-04T15:04:03;3.38;;;1.40;;
58374;SDS011;44178;53.090;6.760;2022-08-04T15:06:30;3.70;;;1.67;;
58374;SDS011;44178;53.090;6.760;2022-08-04T15:08:58;6.50;;;1.70;;
58374;SDS011;44178;53.090;6.760;2022-08-04T15:11:27;3.95;;;1.30;;
58374;SDS011;44178;53.090;6.760;2022-08-04T15:13:53;4.57;;;1.33;;
58374;SDS011;44178;53.090;6.760;2022-08-04T15:16:24;4.78;;;1.48;;
58374;SDS011;44178;53.090;6.760;2022-08-04T15:18:52;7.60;;;2.67;;
58374;SDS011;44178;53.090;6.760;2022-08-04T15:21:18;8.20;;;2.92;;
58374;SDS011;44178;53.090;6.760;2022-08-04T15:23:46;6.70;;;2.80;;
58374;SDS011;44178;53.090;6.760;2022-08-04T15:26:14;6.20;;;2.63;;
58374;SDS011;44178;53.090;6.760;2022-08-04T15:28:50;13.75;;;2.83;;
58374;SDS011;44178;53.090;6.760;2022-08-04T15:31:20;6.20;;;2.58;;
58374;SDS011;44178;53.090;6.760;2022-08-04T15:33:47;8.25;;;2.50;;
58374;SDS011;44178;53.090;6.760;2022-08-04T15:41:40;3.50;;;2.25;;
58374;SDS011;44178;53.090;6.760;2022-08-04T15:49:18;5.32;;;1.85;;
58374;SDS011;44178;53.090;6.760;2022-08-04T15:52:00;2.55;;;1.50;;
58374;SDS011;44178;53.090;6.760;2022-08-04T15:54:27;3.00;;;1.58;;
58374;SDS011;44178;53.090;6.760;2022-08-04T15:56:53;6.78;;;2.35;;
58374;SDS011;44178;53.090;6.760;2022-08-04T16:02:36;3.45;;;1.52;;
58374;SDS011;44178;53.090;6.760;2022-08-04T16:07:57;4.60;;;1.85;;
58374;SDS011;44178;53.090;6.760;2022-08-04T16:12:56;7.03;;;2.30;;
58374;SDS011;44178;53.090;6.760;2022-08-04T16:15:37;5.05;;;2.10;;
58374;SDS011;44178;53.090;6.760;2022-08-04T16:18:06;5.20;;;2.40;;
58374;SDS011;44178;53.090;6.760;2022-08-04T16:20:34;4.70;;;2.00;;
58374;SDS011;44178;53.090;6.760;2022-08-04T16:23:02;4.25;;;2.40;;
58374;SDS011;44178;53.090;6.760;2022-08-04T16:25:47;4.03;;;2.00;;
58374;SDS011;44178;53.090;6.760;2022-08-04T16:31:06;3.40;;;2.40;;
58374;SDS011;44178;53.090;6.760;2022-08-04T16:33:33;4.05;;;2.10;;
58374;SDS011;44178;53.090;6.760;2022-08-04T16:35:59;5.07;;;2.38;;
58374;SDS011;44178;53.090;6.760;2022-08-04T16:38:25;5.45;;;2.40;;
58374;SDS011;44178;53.090;6.760;2022-08-04T16:43:22;4.18;;;2.10;;
58374;SDS011;44178;53.090;6.760;2022-08-04T16:51:03;3.22;;;1.85;;
58374;SDS011;44178;53.090;6.760;2022-08-04T16:53:40;2.85;;;2.20;;
58374;SDS011;44178;53.090;6.760;2022-08-04T16:56:09;2.40;;;2.00;;
58374;SDS011;44178;53.090;6.760;2022-08-04T16:58:35;4.68;;;2.08;;
58374;SDS011;44178;53.090;6.760;2022-08-04T17:01:11;5.82;;;2.00;;
58374;SDS011;44178;53.090;6.760;2022-08-04T17:06:13;4.30;;;2.38;;
58374;SDS011;44178;53.090;6.760;2022-08-04T17:08:39;3.75;;;2.03;;
58374;SDS011;44178;53.090;6.760;2022-08-04T17:11:06;4.68;;;1.75;;
58374;SDS011;44178;53.090;6.760;2022-08-04T17:13:44;8.13;;;2.22;;
58374;SDS011;44178;53.090;6.760;2022-08-04T17:16:11;3.78;;;2.03;;
58374;SDS011;44178;53.090;6.760;2022-08-04T17:18:50;4.85;;;2.17;;
58374;SDS011;44178;53.090;6.760;2022-08-04T17:21:21;5.53;;;2.10;;
58374;SDS011;44178;53.090;6.760;2022-08-04T17:23:49;3.55;;;2.08;;
58374;SDS011;44178;53.090;6.760;2022-08-04T17:26:21;4.95;;;2.50;;
58374;SDS011;44178;53.090;6.760;2022-08-04T17:28:53;5.32;;;2.15;;
58374;SDS011;44178;53.090;6.760;2022-08-04T17:31:20;7.95;;;2.60;;
58374;SDS011;44178;53.090;6.760;2022-08-04T17:33:49;4.70;;;1.88;;
58374;SDS011;44178;53.090;6.760;2022-08-04T17:36:23;6.03;;;2.45;;
58374;SDS011;44178;53.090;6.760;2022-08-04T17:38:52;3.95;;;1.90;;
58374;SDS011;44178;53.090;6.760;2022-08-04T17:41:21;6.32;;;2.03;;
58374;SDS011;44178;53.090;6.760;2022-08-04T17:43:50;4.25;;;1.98;;
58374;SDS011;44178;53.090;6.760;2022-08-04T17:48:53;8.70;;;2.03;;
58374;SDS011;44178;53.090;6.760;2022-08-04T17:53:59;2.80;;;1.70;;
58374;SDS011;44178;53.090;6.760;2022-08-04T17:56:44;4.53;;;1.98;;
58374;SDS011;44178;53.090;6.760;2022-08-04T18:01:41;5.13;;;2.03;;
58374;SDS011;44178;53.090;6.760;2022-08-04T18:04:25;8.35;;;2.30;;
58374;SDS011;44178;53.090;6.760;2022-08-04T18:06:53;4.30;;;1.88;;
58374;SDS011;44178;53.090;6.760;2022-08-04T18:09:21;6.55;;;2.42;;
58374;SDS011;44178;53.090;6.760;2022-08-04T18:12:20;4.68;;;2.00;;
58374;SDS011;44178;53.090;6.760;2022-08-04T18:14:45;4.13;;;2.42;;
58374;SDS011;44178;53.090;6.760;2022-08-04T18:20:16;7.07;;;1.83;;
58374;SDS011;44178;53.090;6.760;2022-08-04T18:22:56;4.43;;;1.90;;
58374;SDS011;44178;53.090;6.760;2022-08-04T18:25:30;5.70;;;2.00;;
58374;SDS011;44178;53.090;6.760;2022-08-04T18:27:56;5.57;;;2.30;;
58374;SDS011;44178;53.090;6.760;2022-08-04T18:30:23;7.55;;;2.28;;
58374;SDS011;44178;53.090;6.760;2022-08-04T18:32:50;7.10;;;2.22;;
58374;SDS011;44178;53.090;6.760;2022-08-04T18:35:18;6.22;;;2.13;;
58374;SDS011;44178;53.090;6.760;2022-08-04T18:37:46;5.00;;;2.22;;
58374;SDS011;44178;53.090;6.760;2022-08-04T18:40:14;3.80;;;2.00;;
58374;SDS011;44178;53.090;6.760;2022-08-04T18:42:41;7.07;;;2.33;;
58374;SDS011;44178;53.090;6.760;2022-08-04T18:45:07;5.75;;;2.53;;
58374;SDS011;44178;53.090;6.760;2022-08-04T18:47:37;8.32;;;2.45;;
58374;SDS011;44178;53.090;6.760;2022-08-04T18:50:03;8.07;;;2.25;;
58374;SDS011;44178;53.090;6.760;2022-08-04T18:52:29;4.07;;;2.10;;
58374;SDS011;44178;53.090;6.760;2022-08-04T18:54:55;4.75;;;2.33;;
58374;SDS011;44178;53.090;6.760;2022-08-04T18:57:22;6.22;;;2.03;;
58374;SDS011;44178;53.090;6.760;2022-08-04T18:59:49;7.33;;;2.40;;
58374;SDS011;44178;53.090;6.760;2022-08-04T19:02:16;5.85;;;2.22;;
58374;SDS011;44178;53.090;6.760;2022-08-04T19:04:42;8.35;;;2.20;;
58374;SDS011;44178;53.090;6.760;2022-08-04T19:07:08;9.23;;;2.70;;
58374;SDS011;44178;53.090;6.760;2022-08-04T19:09:41;6.38;;;2.38;;
58374;SDS011;44178;53.090;6.760;2022-08-04T19:12:08;6.18;;;2.20;;
58374;SDS011;44178;53.090;6.760;2022-08-04T19:14:34;8.52;;;2.60;;
58374;SDS011;44178;53.090;6.760;2022-08-04T19:17:00;6.55;;;2.78;;
58374;SDS011;44178;53.090;6.760;2022-08-04T19:19:27;6.80;;;2.42;;
58374;SDS011;44178;53.090;6.760;2022-08-04T19:21:52;5.05;;;2.25;;
58374;SDS011;44178;53.090;6.760;2022-08-04T19:24:18;4.45;;;2.30;;
58374;SDS011;44178;53.090;6.760;2022-08-04T19:26:44;6.50;;;2.47;;
58374;SDS011;44178;53.090;6.760;2022-08-04T19:29:10;5.97;;;2.28;;
58374;SDS011;44178;53.090;6.760;2022-08-04T19:31:36;9.95;;;2.60;;
58374;SDS011;44178;53.090;6.760;2022-08-04T19:34:01;7.30;;;2.50;;
58374;SDS011;44178;53.090;6.760;2022-08-04T19:36:30;6.22;;;2.63;;
58374;SDS011;44178;53.090;6.760;2022-08-04T19:40:23;5.97;;;2.63;;
58374;SDS011;44178;53.090;6.760;2022-08-04T19:42:49;6.00;;;2.80;;
58374;SDS011;44178;53.090;6.760;2022-08-04T19:45:15;6.20;;;2.92;;
58374;SDS011;44178;53.090;6.760;2022-08-04T19:47:41;8.02;;;2.67;;
58374;SDS011;44178;53.090;6.760;2022-08-04T19:50:07;10.20;;;2.78;;
58374;SDS011;44178;53.090;6.760;2022-08-04T19:52:32;7.70;;;2.42;;
58374;SDS011;44178;53.090;6.760;2022-08-04T19:54:58;7.50;;;2.38;;
58374;SDS011;44178;53.090;6.760;2022-08-04T19:57:24;8.57;;;2.75;;
58374;SDS011;44178;53.090;6.760;2022-08-04T19:59:49;5.85;;;2.90;;
58374;SDS011;44178;53.090;6.760;2022-08-04T20:02:15;6.03;;;2.45;;
58374;SDS011;44178;53.090;6.760;2022-08-04T20:04:41;7.28;;;3.00;;
58374;SDS011;44178;53.090;6.760;2022-08-04T20:07:06;8.43;;;2.80;;
58374;SDS011;44178;53.090;6.760;2022-08-04T20:09:32;9.07;;;2.60;;
58374;SDS011;44178;53.090;6.760;2022-08-04T20:11:58;7.37;;;2.60;;
58374;SDS011;44178;53.090;6.760;2022-08-04T20:14:24;7.67;;;2.87;;
58374;SDS011;44178;53.090;6.760;2022-08-04T20:16:55;10.27;;;2.90;;
58374;SDS011;44178;53.090;6.760;2022-08-04T20:19:22;8.57;;;2.97;;
58374;SDS011;44178;53.090;6.760;2022-08-04T20:21:48;8.23;;;2.57;;
58374;SDS011;44178;53.090;6.760;2022-08-04T20:24:14;7.27;;;2.93;;
58374;SDS011;44178;53.090;6.760;2022-08-04T20:26:39;7.53;;;3.00;;
58374;SDS011;44178;53.090;6.760;2022-08-04T20:29:05;5.27;;;2.73;;
58374;SDS011;44178;53.090;6.760;2022-08-04T20:31:30;6.40;;;3.17;;
58374;SDS011;44178;53.090;6.760;2022-08-04T20:33:56;12.27;;;3.00;;
58374;SDS011;44178;53.090;6.760;2022-08-04T20:36:22;9.40;;;3.07;;
58374;SDS011;44178;53.090;6.760;2022-08-04T20:38:49;8.93;;;3.07;;
58374;SDS011;44178;53.090;6.760;2022-08-04T20:41:16;7.50;;;3.17;;
58374;SDS011;44178;53.090;6.760;2022-08-04T20:43:42;6.87;;;3.03;;
